Wilmington, OH

9:08 AM EDT on August 21, 2014 (GMT -0400)
Union Twp. | Change Station
CLOSE
Current Station
Personal Weather Station
Location: Wilmington, OH
Elevation: 1038 ft
Nearby Weather Stations

Elev 1038 ft 39.50 °N, 83.81 °W | Updated 11 seconds ago

Rain
Rain
70.3 °F
Feels Like 70.3 °F
N
7.2
Wind Variable Wind from SSW
Gusts 8.7 mph

Today
High -- | Low -- °F
--% Chance of Precip.
Yesterday
High -- | Low -- °F
Precip. -- in
6:53 AM 8:22 PM
Waning Crescent, 14% visible
Pressure 30.04 in
Visibility 10.0 miles
Clouds Clear
Dew Point 70 °F
Humidity 98%
Rainfall 0.23 in
Snow Depth Not available.
UV 2 out of 12
Pollen 8.50 out of 12
Ozone Good
PM2.5 Good
Flu Activity Not available.
METAR KILN 211254Z AUTO 20005KT 10SM CLR 21/19 A3006 RMK AO2 RAE31 TSE00 SLP171 P0003 T02060194

More Conditions Fewer Conditions

Pressure 30.04 in
Visibility 10.0 miles
Clouds Clear
Dew Point 70 °F
Humidity 98%
Rainfall 0.23 in
Snow Depth Not available.
UV 2 out of 12
Pollen 8.50 out of 12
Ozone Good
PM2.5 Good
Flu Activity Not available.
METAR KILN 211254Z AUTO 20005KT 10SM CLR 21/19 A3006 RMK AO2 RAE31 TSE00 SLP171 P0003 T02060194

More Conditions Fewer Conditions

10-Day Weather Forecast

Almanac

Astronomy

Aug. 21, 2014 Rise Set
Actual Time 6:53 AM EDT 8:22 PM EDT
Civil Twilight 6:25 AM EDT 8:50 PM EDT
Nautical Twilight 5:51 AM EDT 9:24 PM EDT
Astronomical Twilight 5:15 AM EDT 10:00 PM EDT
Moon 3:23 AM EDT 5:50 PM EDT
Length of Visible Light 14h 25m
Length of Day
13h 29m
Tomorrow will be 2m 21s shorter.
Waning Crescent, 14% of the Moon is Illuminated
Today
Waning Crescent
Aug 25
New
Sep 2
First Quarter
Sep 8
Full
Sep 15
Last Quarter

Today's Extremes

State Highs State Lows

Community

WunderPhotos

Upload Photos

1,745,905 photos uploaded!

WunderBlogs® & News

By Dr. Jeff Masters
Director of Meteorology, Weather Underground
By Kari Strenfel
Meteorologist, Weather Underground
By Christopher C. Burt
Weather Historian, Weather Underground
August 21, 2014
August 21, 2014
August 21, 2014

Nearby

Air Quality

  Air Quality AQ Index Pollutant
Yesterday Good
OZONE
Yesterday Good
PM2.5
Current Good
PM2.5
Current Good
OZONE
Thursday Moderate
PM2.5
Thursday Good
OZONE
Friday Moderate
PM2.5
Friday Good
OZONE
Saturday Moderate
PM2.5
Saturday Good
OZONE
Sunday Good
PM2.5
Sunday Good
OZONE

Snow Depth

Station Depth Elevation
No new snow has been reported.

Earthquake Activity

City Distance Mag. Time & Date
No recent earthquake activity has been reported nearby.
Minimum magnitude displayed is 2.5.

Coastal Water Temperatures

Place Temperature
No Stations Reporting

Nearby Weather Stations